createdAt,value
2023-05-12T00:00:58.259Z,1037.43
2023-05-12T00:02:03.387Z,1022.00
2023-05-12T00:03:06.002Z,994.28
2023-05-12T00:04:11.103Z,1110.93
2023-05-12T00:05:15.911Z,1035.90
2023-05-12T00:06:20.534Z,1045.35
2023-05-12T00:07:22.790Z,1104.55
2023-05-12T00:08:27.403Z,1093.97
2023-05-12T00:09:29.598Z,1063.13
2023-05-12T00:10:35.704Z,1041.03
2023-05-12T00:11:38.332Z,1012.88
2023-05-12T00:12:43.229Z,934.33
2023-05-12T00:13:45.404Z,970.20
2023-05-12T00:14:50.195Z,987.13
2023-05-12T00:15:52.408Z,969.00
2023-05-12T00:16:57.210Z,993.47
2023-05-12T00:17:59.279Z,987.05
2023-05-12T00:19:04.141Z,978.83
2023-05-12T00:20:07.544Z,985.13
2023-05-12T00:21:15.228Z,998.92
2023-05-12T00:22:17.392Z,1032.93
2023-05-12T00:23:22.329Z,1029.95
2023-05-12T00:24:24.374Z,1089.93
2023-05-12T00:25:29.133Z,1089.60
2023-05-12T00:26:31.211Z,1041.38
2023-05-12T00:27:35.878Z,1076.40
2023-05-12T00:28:37.898Z,995.10
2023-05-12T00:29:42.515Z,996.55
2023-05-12T00:30:44.645Z,1045.18
2023-05-12T00:31:49.312Z,1003.00
2023-05-12T00:32:51.501Z,1023.67
2023-05-12T00:33:56.129Z,1028.50
2023-05-12T00:34:58.271Z,1026.00
2023-05-12T00:36:04.260Z,1033.68
2023-05-12T00:37:09.110Z,1002.97
2023-05-12T00:38:13.759Z,1001.15
2023-05-12T00:39:15.815Z,1007.83
2023-05-12T00:40:21.098Z,994.75
2023-05-12T00:41:23.332Z,1082.68
2023-05-12T00:42:27.935Z,1087.15
2023-05-12T00:43:29.996Z,1086.13
2023-05-12T00:44:34.635Z,1134.63
2023-05-12T00:45:37.244Z,1081.32
2023-05-12T00:46:41.973Z,1022.92
2023-05-12T00:47:46.445Z,1045.10
2023-05-12T00:48:51.982Z,1116.53
2023-05-12T00:49:54.103Z,1065.60
2023-05-12T00:51:00.896Z,1020.33
2023-05-12T00:52:03.742Z,1178.60
2023-05-12T00:53:11.377Z,1051.43
2023-05-12T00:54:13.670Z,1059.68
2023-05-12T00:55:18.494Z,996.03
2023-05-12T00:56:20.659Z,1061.30
2023-05-12T00:57:25.954Z,1075.47
2023-05-12T00:58:28.005Z,1111.50
2023-05-12T00:59:32.632Z,1088.20
2023-05-12T01:00:34.728Z,1101.70
2023-05-12T01:01:39.542Z,1147.18
2023-05-12T01:02:42.097Z,1141.22
2023-05-12T01:03:47.205Z,1038.28
2023-05-12T01:04:50.037Z,1027.65
2023-05-12T01:06:03.102Z,970.53
2023-05-12T01:07:10.117Z,856.85
2023-05-12T01:08:19.540Z,867.22
2023-05-12T01:09:22.190Z,1089.65
2023-05-12T01:10:26.850Z,961.58
2023-05-12T01:11:28.877Z,1109.25
2023-05-12T01:12:33.812Z,930.65
2023-05-12T01:13:36.320Z,1027.22
2023-05-12T01:14:41.527Z,953.33
2023-05-12T01:15:48.118Z,957.03
2023-05-12T01:16:55.771Z,965.33
2023-05-12T01:18:02.458Z,918.47
2023-05-12T01:19:10.666Z,949.67
2023-05-12T01:20:15.495Z,975.80
2023-05-12T01:21:21.330Z,924.15
2023-05-12T01:22:24.328Z,1018.40
2023-05-12T01:23:38.936Z,1020.53
2023-05-12T01:24:46.877Z,902.83
2023-05-12T01:25:53.093Z,958.67
2023-05-12T01:26:58.554Z,912.85
2023-05-12T01:28:04.179Z,1163.57
2023-05-12T01:29:07.857Z,1117.57
2023-05-12T01:30:15.302Z,1103.90
2023-05-12T01:31:20.254Z,1094.05
2023-05-12T01:32:26.573Z,1104.65
2023-05-12T01:33:29.219Z,1171.00
2023-05-12T01:34:35.271Z,1200.10
2023-05-12T01:35:37.311Z,1188.72
2023-05-12T01:36:41.923Z,1173.43
2023-05-12T01:37:44.004Z,1082.22
2023-05-12T01:38:48.673Z,1078.70
2023-05-12T01:39:50.813Z,1164.15
2023-05-12T01:40:55.522Z,1096.20
2023-05-12T01:42:00.281Z,1119.85
2023-05-12T01:43:04.928Z,1160.05
2023-05-12T01:44:07.047Z,1096.07
2023-05-12T01:45:12.993Z,1066.45
2023-05-12T01:46:15.185Z,1088.00
2023-05-12T01:47:21.164Z,1065.93
2023-05-12T01:48:23.247Z,1093.63
2023-05-12T01:49:27.950Z,1141.25
2023-05-12T01:50:30.042Z,1124.97
2023-05-12T01:51:34.679Z,1163.07
2023-05-12T01:52:37.033Z,1168.03
2023-05-12T01:53:41.775Z,1091.40
2023-05-12T01:54:43.818Z,1124.53
2023-05-12T01:55:48.488Z,1093.10
2023-05-12T01:56:50.674Z,1082.93
2023-05-12T01:57:57.928Z,1122.03
2023-05-12T01:58:59.950Z,1092.40
2023-05-12T02:00:04.626Z,1089.82
2023-05-12T02:01:06.679Z,1121.90
2023-05-12T02:02:12.521Z,1107.10
2023-05-12T02:03:14.851Z,1105.47
2023-05-12T02:04:19.516Z,1111.15
2023-05-12T02:05:22.422Z,1166.95
2023-05-12T02:06:27.267Z,1153.57
2023-05-12T02:07:29.342Z,1211.45
2023-05-12T02:08:33.993Z,1300.03
2023-05-12T02:09:36.010Z,1144.55
2023-05-12T02:10:40.683Z,1168.30
2023-05-12T02:11:42.757Z,1283.22
2023-05-12T02:12:47.424Z,1147.63
2023-05-12T02:13:52.460Z,1131.47
2023-05-12T02:14:57.124Z,1166.50
2023-05-12T02:15:59.197Z,1137.35
2023-05-12T02:17:04.779Z,1293.65
2023-05-12T02:18:08.075Z,1125.10
2023-05-12T02:19:12.778Z,1115.68
2023-05-12T02:20:15.019Z,1167.03
2023-05-12T02:21:19.655Z,1101.00
2023-05-12T02:22:21.677Z,1128.40
2023-05-12T02:23:26.366Z,1149.57
2023-05-12T02:24:28.477Z,1181.95
2023-05-12T02:25:33.087Z,1206.00
2023-05-12T02:26:35.135Z,1202.97
2023-05-12T02:27:39.786Z,1345.47
2023-05-12T02:28:41.824Z,1192.85
2023-05-12T02:29:49.338Z,1135.30
2023-05-12T02:30:53.264Z,1212.57
2023-05-12T02:31:57.945Z,1073.78
2023-05-12T02:33:00.130Z,1052.82
2023-05-12T02:34:06.568Z,1035.90
2023-05-12T02:35:10.316Z,1041.63
2023-05-12T02:36:14.958Z,1005.97
2023-05-12T02:37:16.990Z,1006.65
2023-05-12T02:38:21.701Z,984.70
2023-05-12T02:39:23.879Z,1011.22
2023-05-12T02:40:28.511Z,1026.20
2023-05-12T02:41:30.531Z,1096.82
2023-05-12T02:42:36.378Z,1131.22
2023-05-12T02:43:38.432Z,1082.60
2023-05-12T02:44:43.059Z,1096.18
2023-05-12T02:45:47.940Z,1001.08
2023-05-12T02:46:52.615Z,993.20
2023-05-12T02:47:54.732Z,1027.65
2023-05-12T02:48:59.374Z,1001.85
2023-05-12T02:50:01.428Z,990.10
2023-05-12T02:51:06.235Z,1038.82
2023-05-12T02:52:08.651Z,998.03
2023-05-12T02:53:13.327Z,984.28
2023-05-12T02:54:15.503Z,1019.35
2023-05-12T02:55:20.476Z,1012.80
2023-05-12T02:56:22.769Z,1016.47
2023-05-12T02:57:33.088Z,966.42
2023-05-12T02:58:35.465Z,872.30
2023-05-12T02:59:40.050Z,850.97
2023-05-12T03:00:42.096Z,773.10
2023-05-12T03:01:49.361Z,709.60
2023-05-12T03:02:51.825Z,611.30
2023-05-12T03:03:56.559Z,608.50
2023-05-12T03:04:58.650Z,601.85
2023-05-12T03:06:04.770Z,543.38
2023-05-12T03:07:07.341Z,557.55
2023-05-12T03:08:12.064Z,560.10
2023-05-12T03:09:14.174Z,571.55
2023-05-12T03:10:19.562Z,627.75
2023-05-12T03:11:22.403Z,670.53
2023-05-12T03:12:28.953Z,561.25
2023-05-12T03:13:31.040Z,673.45
2023-05-12T03:14:35.696Z,644.13
2023-05-12T03:15:37.716Z,643.80
2023-05-12T03:16:42.427Z,635.53
2023-05-12T03:17:47.134Z,696.85
2023-05-12T03:18:51.817Z,785.15
2023-05-12T03:19:53.947Z,620.45
2023-05-12T03:20:58.664Z,600.72
2023-05-12T03:22:00.893Z,679.30
2023-05-12T03:23:06.160Z,628.38
2023-05-12T03:24:09.036Z,663.08
2023-05-12T03:25:13.724Z,664.72
2023-05-12T03:26:15.775Z,663.35
2023-05-12T03:27:20.464Z,643.40
2023-05-12T03:28:24.884Z,646.95
2023-05-12T03:29:29.593Z,645.00
2023-05-12T03:30:33.231Z,731.78
2023-05-12T03:31:37.972Z,754.10
2023-05-12T03:32:40.160Z,764.53
2023-05-12T03:33:47.466Z,781.67
2023-05-12T03:34:49.528Z,708.05
2023-05-12T03:35:54.241Z,758.10
2023-05-12T03:36:58.852Z,706.88
2023-05-12T03:38:03.466Z,666.90
2023-05-12T03:39:05.575Z,717.88
2023-05-12T03:40:11.812Z,669.95
2023-05-12T03:41:13.875Z,661.72
2023-05-12T03:42:19.428Z,717.72
2023-05-12T03:43:21.459Z,645.92
2023-05-12T03:44:26.182Z,679.00
2023-05-12T03:45:28.319Z,820.67
2023-05-12T03:46:33.037Z,787.88
2023-05-12T03:47:36.156Z,793.28
2023-05-12T03:48:40.927Z,827.45
2023-05-12T03:49:45.552Z,776.35
2023-05-12T03:50:50.185Z,680.47
2023-05-12T03:51:52.285Z,738.20
2023-05-12T03:52:57.037Z,665.40
2023-05-12T03:53:59.079Z,664.13
2023-05-12T03:55:03.778Z,723.85
2023-05-12T03:56:06.830Z,652.75
2023-05-12T03:57:11.481Z,672.80
2023-05-12T03:58:13.518Z,668.58
2023-05-12T03:59:18.093Z,697.83
2023-05-12T04:00:23.534Z,727.22
2023-05-12T04:01:25.714Z,724.55
2023-05-12T04:02:30.365Z,666.47
2023-05-12T04:03:32.709Z,711.28
2023-05-12T04:04:37.425Z,774.13
2023-05-12T04:05:42.949Z,708.25
2023-05-12T04:06:47.662Z,765.33
2023-05-12T04:07:49.786Z,793.92
2023-05-12T04:08:54.381Z,751.03
2023-05-12T04:09:56.520Z,752.80
2023-05-12T04:11:02.556Z,762.13
2023-05-12T04:12:05.416Z,709.53
2023-05-12T04:13:10.307Z,707.90
2023-05-12T04:14:12.349Z,694.53
2023-05-12T04:15:17.441Z,799.80
2023-05-12T04:16:19.544Z,768.33
2023-05-12T04:17:24.239Z,799.35
2023-05-12T04:18:27.634Z,875.63
2023-05-12T04:19:32.275Z,778.38
2023-05-12T04:20:34.367Z,801.65
2023-05-12T04:21:41.572Z,841.33
2023-05-12T04:22:44.392Z,972.20
2023-05-12T04:23:49.088Z,844.72
2023-05-12T04:24:51.320Z,808.55
2023-05-12T04:25:56.650Z,914.33
2023-05-12T04:26:58.804Z,795.38
2023-05-12T04:28:03.478Z,755.28
2023-05-12T04:29:05.551Z,812.65
2023-05-12T04:30:11.679Z,906.10
2023-05-12T04:31:13.712Z,849.50
2023-05-12T04:32:18.535Z,881.13
2023-05-12T04:33:20.604Z,899.88
2023-05-12T04:34:25.284Z,926.13
2023-05-12T04:35:27.659Z,913.05
2023-05-12T04:36:32.320Z,973.00
2023-05-12T04:37:36.936Z,923.72
2023-05-12T04:38:41.877Z,978.88
2023-05-12T04:39:43.936Z,1011.00
2023-05-12T04:40:48.673Z,1026.40
2023-05-12T04:41:50.737Z,888.42
2023-05-12T04:42:55.386Z,901.50
2023-05-12T04:44:00.694Z,898.50
2023-05-12T04:45:05.861Z,882.45
2023-05-12T04:46:07.895Z,866.70
2023-05-12T04:47:12.547Z,938.15
2023-05-12T04:48:14.596Z,906.45
2023-05-12T04:49:19.212Z,901.10
2023-05-12T04:50:21.456Z,899.72
2023-05-12T04:51:26.188Z,934.97
2023-05-12T04:52:28.355Z,943.70
2023-05-12T04:53:36.468Z,936.90
2023-05-12T04:54:39.201Z,1002.47
2023-05-12T04:55:46.022Z,960.10
2023-05-12T04:56:48.112Z,1047.53
2023-05-12T04:57:52.802Z,1044.95
2023-05-12T04:58:54.879Z,955.83
2023-05-12T04:59:59.644Z,975.40
2023-05-12T05:01:01.809Z,931.28
2023-05-12T05:02:06.923Z,962.22
2023-05-12T05:03:09.286Z,981.00
2023-05-12T05:04:14.009Z,966.08
2023-05-12T05:05:16.371Z,963.05
2023-05-12T05:06:21.053Z,988.15
2023-05-12T05:07:23.082Z,980.92
2023-05-12T05:08:27.710Z,961.50
2023-05-12T05:09:33.403Z,999.20
2023-05-12T05:10:39.684Z,994.83
2023-05-12T05:11:41.798Z,1022.22
2023-05-12T05:12:46.423Z,1060.25
2023-05-12T05:13:48.436Z,1116.18
2023-05-12T05:14:53.135Z,1065.82
2023-05-12T05:15:56.842Z,935.72
2023-05-12T05:17:01.626Z,1008.75
2023-05-12T05:18:03.812Z,972.88
2023-05-12T05:19:19.547Z,936.42
2023-05-12T05:20:28.591Z,973.72
2023-05-12T05:21:34.770Z,957.30
2023-05-12T05:22:36.908Z,974.92
2023-05-12T05:23:41.936Z,1028.72
2023-05-12T05:24:46.543Z,1142.43
2023-05-12T05:25:51.484Z,1053.05
2023-05-12T05:26:53.566Z,1033.20
2023-05-12T05:27:58.815Z,1086.88
2023-05-12T05:29:03.715Z,990.15
2023-05-12T05:30:08.052Z,1020.90
2023-05-12T05:31:18.364Z,958.88
2023-05-12T05:32:20.522Z,1135.70
2023-05-12T05:33:25.199Z,996.65
2023-05-12T05:34:27.220Z,1067.78
2023-05-12T05:35:33.442Z,965.13
2023-05-12T05:36:35.708Z,988.05
2023-05-12T05:37:40.421Z,1016.70
2023-05-12T05:38:42.779Z,1089.47
2023-05-12T05:39:50.030Z,1082.03
2023-05-12T05:40:53.623Z,1259.60
2023-05-12T05:41:59.150Z,996.40
2023-05-12T05:43:01.230Z,1145.45
2023-05-12T05:44:05.960Z,1035.90
2023-05-12T05:45:09.626Z,1031.85
2023-05-12T05:46:14.290Z,1185.22
2023-05-12T05:47:16.362Z,1108.57
2023-05-12T05:48:21.169Z,1045.75
2023-05-12T05:49:23.364Z,1113.68
2023-05-12T05:50:28.054Z,1075.70
2023-05-12T05:51:30.158Z,1057.60
2023-05-12T05:52:34.761Z,1045.38
2023-05-12T05:53:39.418Z,1084.60
2023-05-12T05:54:41.529Z,1144.93
2023-05-12T05:55:49.269Z,1142.85
2023-05-12T05:56:53.923Z,1198.45
2023-05-12T05:57:55.921Z,1069.07
2023-05-12T05:59:02.724Z,1079.32
2023-05-12T06:00:06.202Z,1114.30
2023-05-12T06:01:10.882Z,1057.50
2023-05-12T06:02:13.046Z,1100.03
2023-05-12T06:03:17.757Z,1137.95
2023-05-12T06:04:19.882Z,1046.35
2023-05-12T06:05:24.937Z,1121.53
2023-05-12T06:06:27.012Z,1125.75
2023-05-12T06:07:31.604Z,1113.63
2023-05-12T06:08:36.228Z,1120.65
2023-05-12T06:09:38.253Z,1280.32
2023-05-12T06:10:42.952Z,1127.95
2023-05-12T06:11:47.621Z,1147.35
2023-05-12T06:12:53.193Z,1246.07
2023-05-12T06:13:55.208Z,1243.82
2023-05-12T06:14:59.840Z,1083.13
2023-05-12T06:16:01.908Z,1113.13
2023-05-12T06:17:06.619Z,1195.90
2023-05-12T06:18:08.920Z,1055.07
2023-05-12T06:19:13.604Z,1055.45
2023-05-12T06:20:15.844Z,1130.22
2023-05-12T06:21:20.465Z,1114.85
2023-05-12T06:22:25.241Z,1080.40
2023-05-12T06:23:27.502Z,1168.40
2023-05-12T06:24:32.113Z,1164.97
2023-05-12T06:25:36.806Z,1085.15
2023-05-12T06:26:38.905Z,1202.75
2023-05-12T06:27:46.189Z,1166.97
2023-05-12T06:28:48.641Z,1203.90
2023-05-12T06:29:54.537Z,1251.38
2023-05-12T06:30:56.587Z,1065.60
2023-05-12T06:32:01.248Z,1067.18
2023-05-12T06:33:03.445Z,1183.35
2023-05-12T06:34:08.064Z,1060.07
2023-05-12T06:35:10.390Z,1068.13
2023-05-12T06:36:15.056Z,1070.60
2023-05-12T06:37:17.072Z,1155.72
2023-05-12T06:38:21.718Z,1085.82
2023-05-12T06:39:23.726Z,1095.70
2023-05-12T06:40:28.335Z,1076.22
2023-05-12T06:41:30.601Z,1075.25
2023-05-12T06:42:35.235Z,1079.80
2023-05-12T06:43:39.968Z,1099.97
2023-05-12T06:44:45.814Z,1160.65
2023-05-12T06:45:50.567Z,1167.35
2023-05-12T06:46:52.668Z,1156.30
2023-05-12T06:47:57.964Z,1146.93
2023-05-12T06:49:03.230Z,1084.50
2023-05-12T06:50:06.826Z,1077.45
2023-05-12T06:51:11.472Z,1089.47
2023-05-12T06:52:16.556Z,1069.07
2023-05-12T06:53:22.823Z,1098.68
2023-05-12T06:54:28.669Z,1094.20
2023-05-12T06:55:33.325Z,1071.82
2023-05-12T06:56:35.520Z,1150.15
2023-05-12T06:57:40.290Z,1150.45
2023-05-12T06:58:44.952Z,1168.72
2023-05-12T06:59:49.595Z,1304.18
2023-05-12T07:00:51.692Z,1170.72
2023-05-12T07:01:56.458Z,1131.22
2023-05-12T07:03:01.237Z,1172.43
2023-05-12T07:04:03.420Z,1061.43
2023-05-12T07:05:08.926Z,1134.57
2023-05-12T07:06:11.296Z,1166.75
2023-05-12T07:07:15.925Z,928.83
2023-05-12T07:08:18.009Z,1116.05
2023-05-12T07:09:22.677Z,1216.78
2023-05-12T07:10:24.707Z,1096.00
2023-05-12T07:11:29.493Z,1089.50
2023-05-12T07:12:32.665Z,1132.70
2023-05-12T07:13:38.278Z,1147.18
2023-05-12T07:14:42.898Z,1099.18
2023-05-12T07:15:47.580Z,1153.38
2023-05-12T07:16:49.778Z,1083.38
2023-05-12T07:17:55.911Z,1158.40
2023-05-12T07:18:58.104Z,1151.20
2023-05-12T07:20:03.181Z,1059.40
2023-05-12T07:21:08.251Z,1088.28
2023-05-12T07:22:15.660Z,1058.18
2023-05-12T07:23:20.435Z,1412.75
2023-05-12T07:24:22.509Z,1063.55
2023-05-12T07:25:28.458Z,1087.70
2023-05-12T07:26:33.165Z,1088.32
2023-05-12T07:27:35.305Z,1071.05
2023-05-12T07:28:40.426Z,1053.70
2023-05-12T07:29:45.080Z,1103.13
2023-05-12T07:30:49.754Z,1140.40
2023-05-12T07:31:51.924Z,955.15
2023-05-12T07:32:58.032Z,986.25
2023-05-12T07:34:02.715Z,1093.28
2023-05-12T07:35:05.717Z,1030.53
2023-05-12T07:36:11.228Z,1062.82
2023-05-12T07:37:13.269Z,1164.53
2023-05-12T07:38:17.944Z,1071.75
2023-05-12T07:39:23.956Z,677.50
2023-05-12T07:40:28.730Z,831.35
2023-05-12T07:41:32.566Z,879.00
2023-05-12T07:42:38.533Z,1025.10
2023-05-12T07:43:40.604Z,1035.30
2023-05-12T07:44:48.024Z,1217.85
2023-05-12T07:45:52.706Z,1200.13
2023-05-12T07:46:54.842Z,1199.57
2023-05-12T07:47:59.548Z,1242.10
2023-05-12T07:49:04.259Z,1135.20
2023-05-12T07:50:07.373Z,1095.10
2023-05-12T07:51:12.220Z,894.25
2023-05-12T07:52:16.844Z,965.15
2023-05-12T07:53:18.896Z,960.17
2023-05-12T07:54:23.529Z,955.78
2023-05-12T07:55:28.413Z,977.78
2023-05-12T07:56:30.483Z,1144.00
2023-05-12T07:57:35.094Z,1000.53
2023-05-12T07:58:37.169Z,1024.53
2023-05-12T07:59:42.290Z,1202.95
2023-05-12T08:00:49.475Z,1101.28
2023-05-12T08:01:51.594Z,1159.63
2023-05-12T08:02:56.618Z,1136.00
2023-05-12T08:03:59.010Z,1102.38
2023-05-12T08:05:03.744Z,1031.90
2023-05-12T08:06:07.446Z,1059.97
2023-05-12T08:07:12.107Z,1030.07
2023-05-12T08:08:16.902Z,1125.32
2023-05-12T08:09:21.481Z,1065.93
2023-05-12T08:10:29.806Z,1060.57
2023-05-12T08:11:31.854Z,1071.85
2023-05-12T08:12:36.888Z,1082.68
2023-05-12T08:13:41.753Z,1081.53
2023-05-12T08:14:43.745Z,1079.97
2023-05-12T08:15:52.318Z,1112.93
2023-05-12T08:16:54.425Z,1266.10
2023-05-12T08:17:59.302Z,1156.68
2023-05-12T08:19:01.442Z,1144.72
2023-05-12T08:20:07.101Z,1091.57
2023-05-12T08:21:09.462Z,1110.90
2023-05-12T08:22:14.081Z,1088.95
2023-05-12T08:23:19.439Z,1140.63
2023-05-12T08:24:24.337Z,1123.30
2023-05-12T08:25:28.023Z,1105.82
2023-05-12T08:26:32.645Z,1116.15
2023-05-12T08:27:37.294Z,1150.15
2023-05-12T08:28:41.959Z,1150.03
2023-05-12T08:29:44.017Z,1260.75
2023-05-12T08:30:51.317Z,1229.05
2023-05-12T08:31:53.589Z,1307.18
2023-05-12T08:32:58.932Z,1299.55
2023-05-12T08:34:10.378Z,1232.45
2023-05-12T08:35:15.873Z,1232.43
2023-05-12T08:36:20.529Z,1208.60
2023-05-12T08:37:22.695Z,1407.40
2023-05-12T08:38:27.420Z,1306.40
2023-05-12T08:39:31.179Z,1287.75
2023-05-12T08:40:49.950Z,460.42
2023-05-12T08:42:02.491Z,1420.85
2023-05-12T08:43:10.407Z,1187.38
2023-05-12T08:44:16.023Z,1249.28
2023-05-12T08:45:18.863Z,1182.95
2023-05-12T08:46:27.027Z,1217.57
2023-05-12T08:47:29.411Z,1219.43
2023-05-12T08:48:37.544Z,1188.90
2023-05-12T08:49:40.626Z,1178.65
2023-05-12T08:50:46.541Z,1250.55
2023-05-12T08:51:57.678Z,439.10
2023-05-12T08:53:03.262Z,1155.03
2023-05-12T08:54:07.991Z,383.92
2023-05-12T08:55:13.631Z,324.00
2023-05-12T08:57:29.608Z,638.55
2023-05-12T08:58:41.084Z,263.00
2023-05-12T08:59:47.201Z,281.00
2023-05-12T09:00:50.984Z,278.42
2023-05-12T09:01:59.249Z,343.15
2023-05-12T09:03:02.590Z,461.20
2023-05-12T09:04:07.875Z,329.52
2023-05-12T09:05:10.481Z,273.98
2023-05-12T09:06:16.146Z,302.20
2023-05-12T09:07:19.221Z,266.98
2023-05-12T09:08:24.392Z,272.58
2023-05-12T09:09:29.800Z,236.27
2023-05-12T09:10:35.787Z,259.65
2023-05-12T09:11:40.717Z,244.45
2023-05-12T09:12:46.415Z,288.45
2023-05-12T09:13:54.347Z,364.83
2023-05-12T09:15:08.022Z,315.40
2023-05-12T09:16:13.069Z,293.45
2023-05-12T09:17:20.346Z,264.10
2023-05-12T09:18:22.486Z,276.13
2023-05-12T09:19:27.174Z,293.98
2023-05-12T09:20:31.766Z,228.05
2023-05-12T09:21:37.537Z,284.88
2023-05-12T09:22:42.252Z,264.25
2023-05-12T09:23:53.261Z,436.73
2023-05-12T09:24:57.883Z,333.45
2023-05-12T09:26:01.426Z,355.80
2023-05-12T09:27:07.243Z,416.77
2023-05-12T09:28:09.732Z,299.40
2023-05-12T09:29:21.217Z,288.13
2023-05-12T09:30:38.344Z,313.90
2023-05-12T09:31:50.059Z,819.40
2023-05-12T09:34:10.851Z,288.73
2023-05-12T09:35:15.629Z,267.17
2023-05-12T09:36:18.751Z,292.13
2023-05-12T09:37:23.398Z,259.75
2023-05-12T09:38:25.394Z,289.75
2023-05-12T09:39:30.447Z,261.52
2023-05-12T09:40:32.510Z,292.65
2023-05-12T09:41:38.997Z,268.77
2023-05-12T09:42:45.431Z,288.48
2023-05-12T09:43:47.548Z,293.10
2023-05-12T09:44:53.085Z,295.70
2023-05-12T09:45:55.821Z,310.58
2023-05-12T09:47:10.454Z,346.92
2023-05-12T09:48:15.466Z,272.10
2023-05-12T09:49:25.198Z,242.45
2023-05-12T09:50:30.583Z,308.75
2023-05-12T09:51:39.589Z,242.20
2023-05-12T09:52:41.641Z,262.27
2023-05-12T09:53:47.284Z,324.05
2023-05-12T09:54:49.294Z,233.27
2023-05-12T09:55:54.068Z,237.77
2023-05-12T09:56:59.202Z,296.80
2023-05-12T09:58:05.253Z,412.27
2023-05-12T09:59:13.382Z,325.85
2023-05-12T10:00:34.537Z,230.00
2023-05-12T10:01:43.318Z,377.75
2023-05-12T10:02:49.406Z,317.08
2023-05-12T10:03:58.629Z,271.10
2023-05-12T10:05:03.473Z,323.45
2023-05-12T10:06:10.909Z,307.33
2023-05-12T10:07:17.566Z,336.50
2023-05-12T10:08:26.643Z,237.13
2023-05-12T10:09:34.200Z,229.38
2023-05-12T10:10:39.748Z,251.15
2023-05-12T10:11:42.719Z,229.43
2023-05-12T10:12:49.149Z,235.05
2023-05-12T10:13:52.437Z,272.15
2023-05-12T10:14:58.126Z,271.38
2023-05-12T10:16:00.815Z,297.85
2023-05-12T10:17:05.861Z,347.65
2023-05-12T10:18:08.729Z,233.48
2023-05-12T10:19:16.813Z,221.55
2023-05-12T10:20:19.230Z,242.15
2023-05-12T10:21:24.838Z,341.50
2023-05-12T10:22:28.334Z,231.52
2023-05-12T10:23:35.468Z,328.52
2023-05-12T10:24:40.984Z,295.05
2023-05-12T10:25:46.275Z,269.75
2023-05-12T10:26:48.388Z,297.35
2023-05-12T10:27:54.360Z,342.30
2023-05-12T10:28:59.733Z,287.67
2023-05-12T10:30:02.873Z,334.75
2023-05-12T10:31:09.993Z,341.30
2023-05-12T10:32:12.163Z,265.73
2023-05-12T10:33:16.885Z,272.00
2023-05-12T10:34:21.847Z,264.70
2023-05-12T10:35:35.577Z,244.60
2023-05-12T10:36:49.836Z,245.07
2023-05-12T10:37:51.940Z,236.55
2023-05-12T10:38:56.879Z,299.40
2023-05-12T10:40:01.260Z,382.73
2023-05-12T10:41:09.300Z,308.17
2023-05-12T10:42:11.710Z,244.85
2023-05-12T10:43:24.899Z,280.70
2023-05-12T10:44:30.582Z,275.42
2023-05-12T10:45:36.927Z,302.33
2023-05-12T10:46:41.919Z,248.45
2023-05-12T10:47:45.196Z,247.00
2023-05-12T10:48:55.982Z,301.08
2023-05-12T10:50:00.665Z,338.37
2023-05-12T10:51:10.524Z,335.70
2023-05-12T10:52:16.272Z,301.20
2023-05-12T10:53:38.007Z,324.90
2023-05-12T10:54:50.372Z,340.85
2023-05-12T10:55:57.275Z,272.48
2023-05-12T10:57:03.547Z,312.15
2023-05-12T10:58:07.780Z,366.77
2023-05-12T11:01:10.130Z,357.92
2023-05-12T11:02:19.798Z,302.17
2023-05-12T11:03:25.810Z,280.00
2023-05-12T11:04:44.708Z,374.10
2023-05-12T11:05:59.454Z,312.08
2023-05-12T11:07:08.205Z,350.58
2023-05-12T11:08:11.587Z,319.48
2023-05-12T11:09:17.858Z,302.92
2023-05-12T11:10:23.713Z,345.20
2023-05-12T11:11:27.106Z,266.20
2023-05-12T11:12:35.593Z,310.67
2023-05-12T11:13:40.856Z,352.63
2023-05-12T11:14:44.291Z,304.25
2023-05-12T11:15:50.473Z,295.33
2023-05-12T11:16:53.797Z,289.25
2023-05-12T11:17:58.480Z,314.30
2023-05-12T11:19:04.679Z,292.23
2023-05-12T11:20:12.182Z,325.80
2023-05-12T11:21:17.227Z,401.13
2023-05-12T11:22:23.069Z,326.55
2023-05-12T11:23:29.218Z,278.75
2023-05-12T11:24:31.287Z,322.55
2023-05-12T11:25:36.023Z,277.42
2023-05-12T11:26:40.979Z,761.42
2023-05-12T11:27:50.885Z,1185.75
2023-05-12T11:28:52.986Z,1122.95
2023-05-12T11:30:02.046Z,497.00
2023-05-12T11:33:06.092Z,297.50
2023-05-12T11:34:13.192Z,1080.75
2023-05-12T11:35:20.451Z,611.00
2023-05-12T11:36:25.182Z,287.02
2023-05-12T11:37:31.254Z,469.52
2023-05-12T11:38:34.417Z,683.53
2023-05-12T11:39:41.029Z,1272.72
2023-05-12T11:40:45.311Z,1171.45
2023-05-12T11:41:59.278Z,1275.05
2023-05-12T11:43:16.266Z,1162.18
2023-05-12T11:44:23.660Z,382.05
2023-05-12T11:45:28.880Z,335.48
2023-05-12T11:46:34.996Z,314.98
2023-05-12T11:47:38.001Z,291.38
2023-05-12T11:48:45.917Z,200.52
2023-05-12T11:49:56.410Z,237.77
2023-05-12T11:51:49.543Z,346.38
2023-05-12T11:53:16.955Z,163.00
2023-05-12T11:54:34.655Z,311.10
2023-05-12T11:55:43.613Z,387.20
2023-05-12T11:56:58.242Z,158.05
2023-05-12T11:58:10.118Z,220.77
2023-05-12T11:59:34.369Z,199.90
2023-05-12T12:00:45.529Z,583.40
2023-05-12T12:01:50.932Z,288.80
2023-05-12T12:02:53.673Z,285.15
2023-05-12T12:04:19.649Z,246.95
2023-05-12T12:05:45.142Z,216.10
2023-05-12T12:06:52.242Z,203.00
2023-05-12T12:08:09.747Z,194.63
2023-05-12T12:09:21.081Z,202.10
2023-05-12T12:10:25.476Z,203.43
2023-05-12T12:11:40.545Z,218.18
2023-05-12T12:12:52.707Z,176.68
2023-05-12T12:14:08.201Z,190.95
2023-05-12T12:15:16.097Z,319.58
2023-05-12T12:16:26.042Z,184.95
2023-05-12T12:17:47.906Z,228.23
2023-05-12T12:19:21.188Z,194.02
2023-05-12T12:20:48.265Z,179.70
2023-05-12T12:21:59.986Z,129.57
2023-05-12T12:23:07.786Z,277.33
2023-05-12T12:24:23.903Z,331.40
2023-05-12T12:25:38.198Z,288.73
2023-05-12T12:26:46.973Z,344.70
2023-05-12T12:28:01.407Z,327.50
2023-05-12T12:31:26.534Z,438.10
2023-05-12T12:32:46.848Z,232.35
2023-05-12T12:33:52.452Z,239.85
2023-05-12T12:35:07.000Z,268.02
2023-05-12T12:36:29.132Z,1018.75
2023-05-12T12:38:54.428Z,286.10
2023-05-12T12:40:00.569Z,245.73
2023-05-12T12:41:10.507Z,220.43
2023-05-12T12:42:16.749Z,257.63
2023-05-12T12:43:22.636Z,202.57
2023-05-12T12:44:26.052Z,239.00
2023-05-12T12:45:33.362Z,222.00
2023-05-12T12:46:39.394Z,238.25
2023-05-12T12:47:44.876Z,315.38
2023-05-12T12:48:49.586Z,251.48
2023-05-12T12:49:56.137Z,303.27
2023-05-12T12:51:02.948Z,226.20
2023-05-12T12:52:09.356Z,332.25
2023-05-12T12:53:17.527Z,270.13
2023-05-12T12:54:27.946Z,172.45
2023-05-12T12:55:34.601Z,157.80
2023-05-12T12:56:38.633Z,225.40
2023-05-12T12:57:44.933Z,189.70
2023-05-12T12:58:48.304Z,220.10
2023-05-12T12:59:54.536Z,162.80
2023-05-12T13:01:02.937Z,163.05
2023-05-12T13:02:14.825Z,221.95
2023-05-12T13:03:21.028Z,223.68
2023-05-12T13:04:25.379Z,226.25
2023-05-12T13:05:37.943Z,205.68
2023-05-12T13:06:47.789Z,223.50
2023-05-12T13:08:03.168Z,231.52
2023-05-12T13:09:07.812Z,345.33
2023-05-12T13:10:42.416Z,373.35
2023-05-12T13:11:47.729Z,199.27
2023-05-12T13:12:59.174Z,244.35
2023-05-12T13:14:07.580Z,245.25
2023-05-12T13:15:20.604Z,288.45
2023-05-12T13:16:38.022Z,212.73
2023-05-12T13:18:10.477Z,207.98
2023-05-12T13:19:29.810Z,295.38
2023-05-12T13:20:50.385Z,206.23
2023-05-12T13:22:02.945Z,194.68
2023-05-12T13:23:13.028Z,168.18
2023-05-12T13:24:20.312Z,275.65
2023-05-12T13:25:31.400Z,251.63
2023-05-12T13:26:42.910Z,233.25
2023-05-12T13:27:47.966Z,201.60
2023-05-12T13:28:50.700Z,219.65
2023-05-12T13:29:58.643Z,214.02
2023-05-12T13:31:01.965Z,121.65
2023-05-12T13:32:10.401Z,161.63
2023-05-12T13:33:13.349Z,205.55
2023-05-12T13:34:19.949Z,217.98
2023-05-12T13:35:23.759Z,191.77
2023-05-12T13:36:34.785Z,243.20
2023-05-12T13:37:38.868Z,115.60